Time;durP1;ratioP1;P1;durP2;ratioP2;P2;SDS_P1;SDS_P2;PMS_P1;PMS_P2;Temp;Humidity;BMP_temperature;BMP_pressure;BME280_temperature;BME280_humidity;BME280_pressure;Samples;Min_cycle;Max_cycle;Signal;HPM_P1;HPM_P2
2023/05/01 00:00:52;;;;;;;6.30;3.53;;;;;;;15.55;52.69;100703.69;5068173;28;20031;-73
2023/05/01 00:03:18;;;;;;;3.55;2.38;;;;;;;15.48;52.73;100708.00;5064353;28;20021;-73
2023/05/01 00:05:44;;;;;;;5.13;2.75;;;;;;;15.42;53.17;100703.41;5070048;28;20028;-73
2023/05/01 00:08:10;;;;;;;4.97;3.25;;;;;;;15.35;53.32;100706.88;5065013;28;20052;-73
2023/05/01 00:10:36;;;;;;;4.70;3.03;;;;;;;15.25;54.78;100707.06;5059350;28;20074;-73
2023/05/01 00:13:01;;;;;;;3.05;2.42;;;;;;;15.06;56.30;100707.47;5065067;28;20068;-72
2023/05/01 00:15:27;;;;;;;4.68;2.85;;;;;;;14.77;57.17;100703.56;5069438;28;20029;-73
2023/05/01 00:17:53;;;;;;;3.58;2.72;;;;;;;14.79;56.04;100704.22;5052956;28;20036;-72
2023/05/01 00:20:18;;;;;;;3.70;2.80;;;;;;;14.87;56.51;100706.03;5069544;28;20105;-73
2023/05/01 00:22:43;;;;;;;4.53;2.70;;;;;;;14.65;57.66;100707.50;5080130;28;20044;-73
2023/05/01 00:25:09;;;;;;;3.70;2.40;;;;;;;14.44;58.59;100701.97;5068459;28;20131;-72
2023/05/01 00:27:35;;;;;;;4.82;2.20;;;;;;;14.48;57.66;100698.84;5070776;28;20037;-73
2023/05/01 00:30:00;;;;;;;2.55;2.13;;;;;;;14.63;56.70;100704.28;5072426;28;20088;-73
2023/05/01 00:32:26;;;;;;;2.35;1.65;;;;;;;14.78;55.70;100705.22;5067278;28;20508;-73
2023/05/01 00:34:51;;;;;;;3.30;1.50;;;;;;;14.84;55.76;100708.97;5071446;28;20036;-73
2023/05/01 00:37:17;;;;;;;3.63;2.20;;;;;;;14.66;57.33;100690.78;5074380;28;20400;-72
2023/05/01 00:39:42;;;;;;;3.22;2.08;;;;;;;14.35;59.30;100697.66;5074312;28;20110;-73
2023/05/01 00:42:07;;;;;;;3.72;1.77;;;;;;;14.19;59.40;100694.03;5067149;28;20025;-73
2023/05/01 00:44:33;;;;;;;4.00;1.70;;;;;;;14.08;59.64;100691.75;5073948;28;20071;-73
2023/05/01 00:47:01;;;;;;;6.88;2.85;;;;;;;13.95;60.76;100694.84;5072890;28;20040;-73
2023/05/01 00:49:27;;;;;;;4.18;2.05;;;;;;;13.78;61.33;100690.53;5071821;28;20025;-74
2023/05/01 00:51:53;;;;;;;5.20;2.38;;;;;;;13.70;61.55;100690.53;5060989;28;20044;-73
2023/05/01 00:54:19;;;;;;;2.80;2.30;;;;;;;13.60;62.75;100682.81;5070163;28;20122;-73
2023/05/01 00:56:46;;;;;;;4.32;2.40;;;;;;;13.48;63.61;100694.53;5063703;28;20040;-73
2023/05/01 00:59:13;;;;;;;6.15;2.83;;;;;;;13.32;64.00;100699.69;5068294;28;20041;-73
2023/05/01 01:01:40;;;;;;;2.67;2.28;;;;;;;13.23;64.34;100705.91;5067139;28;20487;-73
2023/05/01 01:04:06;;;;;;;2.38;2.17;;;;;;;13.15;64.93;100690.94;5072210;28;20055;-72
2023/05/01 01:06:41;;;;;;;2.13;1.83;;;;;;;13.11;65.25;100697.47;5070535;28;20036;-72
2023/05/01 01:09:31;;;;;;;6.70;2.65;;;;;;;13.03;65.83;100689.56;5069879;28;20025;-73
2023/05/01 01:12:31;;;;;;;3.50;2.47;;;;;;;12.96;66.94;100697.19;5065920;28;20039;-73
2023/05/01 01:15:44;;;;;;;2.90;2.60;;;;;;;12.82;67.05;100702.97;5064319;28;20037;-72
2023/05/01 01:18:13;;;;;;;3.28;1.90;;;;;;;13.48;62.39;100689.31;5062833;28;20052;-73
2023/05/01 01:21:00;;;;;;;4.03;1.95;;;;;;;13.82;59.66;100685.81;5074968;28;20040;-72
2023/05/01 01:23:29;;;;;;;3.28;1.75;;;;;;;13.90;60.50;100694.50;5067836;28;20185;-72
2023/05/01 01:26:12;;;;;;;6.60;1.90;;;;;;;13.65;62.03;100686.75;5072389;28;20637;-72
2023/05/01 01:28:45;;;;;;;4.20;2.22;;;;;;;13.41;64.03;100682.25;5068473;28;20480;-72
2023/05/01 01:31:29;;;;;;;6.97;2.13;;;;;;;13.25;64.45;100681.19;5077496;28;20131;-72
2023/05/01 01:34:01;;;;;;;2.50;2.17;;;;;;;13.13;65.51;100677.19;5070768;28;20436;-72
2023/05/01 01:37:00;;;;;;;2.67;2.38;;;;;;;13.02;66.65;100681.88;5066459;28;20028;-73
2023/05/01 01:39:33;;;;;;;5.78;2.15;;;;;;;13.04;66.07;100678.13;5078537;28;20036;-72
2023/05/01 01:42:00;;;;;;;2.75;2.13;;;;;;;13.01;66.59;100681.03;5070251;28;20031;-72
2023/05/01 01:44:33;;;;;;;4.47;2.50;;;;;;;12.96;66.79;100663.19;5067951;28;20409;-71
2023/05/01 01:47:03;;;;;;;4.53;2.70;;;;;;;12.90;67.13;100682.13;5068994;28;20040;-72
2023/05/01 01:49:31;;;;;;;4.20;2.35;;;;;;;12.93;65.99;100673.97;5078299;28;20036;-73
2023/05/01 01:51:57;;;;;;;3.60;2.05;;;;;;;12.99;65.43;100676.94;5070751;28;20104;-73
2023/05/01 01:54:32;;;;;;;6.30;3.40;;;;;;;12.93;64.52;100671.34;5069229;28;20028;-72
2023/05/01 01:57:01;;;;;;;3.13;2.10;;;;;;;13.12;64.11;100669.50;5069441;28;20036;-72
2023/05/01 01:59:32;;;;;;;4.95;2.70;;;;;;;13.19;64.55;100676.59;5075326;28;20032;-72
2023/05/01 02:01:59;;;;;;;5.70;3.97;;;;;;;13.13;64.77;100679.00;5070479;28;20120;-72
2023/05/01 02:04:27;;;;;;;5.65;3.53;;;;;;;12.99;66.15;100674.31;5047704;28;20047;-72
2023/05/01 02:06:55;;;;;;;4.20;3.33;;;;;;;12.78;67.32;100674.69;5072683;28;20055;-71
2023/05/01 02:09:23;;;;;;;4.90;2.90;;;;;;;12.61;68.36;100674.59;5065085;28;20496;-71
2023/05/01 02:11:50;;;;;;;3.85;2.92;;;;;;;12.44;69.68;100672.00;5069156;28;20086;-72
2023/05/01 02:14:17;;;;;;;4.35;2.60;;;;;;;12.27;70.25;100671.88;5072416;28;20043;-71
2023/05/01 02:16:44;;;;;;;3.67;2.45;;;;;;;12.15;71.03;100665.25;5070651;28;20054;-72
2023/05/01 02:19:12;;;;;;;5.30;3.00;;;;;;;12.13;71.57;100677.63;5078060;28;20028;-72
2023/05/01 02:21:38;;;;;;;5.35;2.58;;;;;;;12.12;71.53;100686.44;5071005;28;20166;-73
2023/05/01 02:24:05;;;;;;;2.95;2.30;;;;;;;12.14;70.62;100681.06;5067247;28;20040;-72
2023/05/01 02:26:36;;;;;;;3.78;2.75;;;;;;;12.13;70.97;100679.41;5065970;28;20380;-71
2023/05/01 02:29:03;;;;;;;3.45;2.80;;;;;;;12.09;71.39;100678.88;5060680;28;20029;-71
2023/05/01 02:31:29;;;;;;;2.42;2.22;;;;;;;12.04;71.80;100670.69;5068179;28;20437;-71
2023/05/01 02:33:55;;;;;;;4.40;2.47;;;;;;;11.99;72.50;100667.69;5068977;28;20063;-72
2023/05/01 02:36:21;;;;;;;3.30;2.13;;;;;;;11.93;73.00;100676.13;5069609;28;20032;-71
2023/05/01 02:38:49;;;;;;;3.85;2.20;;;;;;;11.87;72.68;100681.91;5072042;28;20081;-71
2023/05/01 02:41:15;;;;;;;7.15;2.33;;;;;;;11.84;73.48;100672.59;5072273;28;20024;-71
2023/05/01 02:43:42;;;;;;;4.53;2.55;;;;;;;11.81;73.31;100669.47;5067014;28;20094;-72
2023/05/01 02:46:10;;;;;;;2.95;2.40;;;;;;;11.80;74.01;100671.28;5083436;28;20028;-71
2023/05/01 02:48:37;;;;;;;4.95;2.40;;;;;;;11.69;74.25;100683.66;5071609;28;20148;-72
2023/05/01 02:51:03;;;;;;;4.15;2.55;;;;;;;11.58;75.73;100675.06;5067089;28;20033;-72
2023/05/01 02:53:29;;;;;;;5.55;3.95;;;;;;;11.43;75.30;100667.88;5067285;28;20036;-72
2023/05/01 02:55:55;;;;;;;4.10;3.50;;;;;;;11.71;73.16;100655.63;5076476;28;20035;-72
2023/05/01 02:58:21;;;;;;;6.63;2.72;;;;;;;11.79;73.44;100666.19;5073567;28;20028;-71
2023/05/01 03:00:48;;;;;;;4.30;3.30;;;;;;;11.68;74.23;100664.56;5063175;28;21358;-72
2023/05/01 03:03:14;;;;;;;2.92;2.38;;;;;;;11.60;75.02;100651.44;5073804;28;20383;-72
2023/05/01 03:05:40;;;;;;;4.82;3.17;;;;;;;11.48;76.14;100653.41;5073423;28;20060;-72
2023/05/01 03:08:06;;;;;;;4.10;2.58;;;;;;;11.45;76.42;100647.66;5067297;28;20142;-72
2023/05/01 03:10:32;;;;;;;4.93;2.67;;;;;;;11.43;77.47;100645.22;5065233;28;20032;-71
2023/05/01 03:12:58;;;;;;;6.00;3.28;;;;;;;11.41;77.68;100652.34;5070125;28;20055;-71
2023/05/01 03:15:23;;;;;;;6.30;3.40;;;;;;;11.36;78.06;100645.94;5064998;28;20076;-71
2023/05/01 03:17:49;;;;;;;3.50;3.13;;;;;;;11.36;78.54;100648.53;5067183;28;20487;-71
2023/05/01 03:20:14;;;;;;;3.85;2.88;;;;;;;11.38;78.81;100634.38;5065729;28;20028;-71
2023/05/01 03:22:40;;;;;;;4.35;3.05;;;;;;;11.33;79.57;100635.81;5069718;28;20463;-72
2023/05/01 03:25:06;;;;;;;6.90;3.38;;;;;;;11.29;79.72;100632.66;5067089;28;20459;-72
2023/05/01 03:27:31;;;;;;;4.07;3.05;;;;;;;11.26;79.55;100633.78;5068429;28;20039;-72
2023/05/01 03:29:57;;;;;;;5.45;2.97;;;;;;;11.24;79.86;100638.31;5071376;28;20047;-71
2023/05/01 03:32:22;;;;;;;4.82;2.67;;;;;;;11.23;79.78;100626.25;5065546;28;20067;-71
2023/05/01 03:34:48;;;;;;;5.00;2.53;;;;;;;11.22;80.01;100622.00;5068223;28;20039;-71
2023/05/01 03:37:14;;;;;;;2.97;2.40;;;;;;;11.21;79.19;100624.75;5068880;28;20094;-71
2023/05/01 03:39:39;;;;;;;5.97;2.60;;;;;;;11.25;79.23;100629.53;5070170;28;20028;-71
2023/05/01 03:42:05;;;;;;;3.60;2.53;;;;;;;11.27;80.12;100613.75;5066613;28;20033;-71
2023/05/01 03:44:31;;;;;;;4.53;2.53;;;;;;;11.24;79.93;100611.41;5063131;28;20072;-71
2023/05/01 03:46:56;;;;;;;7.50;2.88;;;;;;;11.21;80.71;100616.91;5068103;28;20500;-71
2023/05/01 03:49:22;;;;;;;4.43;2.80;;;;;;;11.18;80.46;100605.00;5063935;28;20124;-71
2023/05/01 03:51:47;;;;;;;3.95;2.95;;;;;;;11.27;80.20;100604.13;5070498;28;20070;-72
2023/05/01 03:54:13;;;;;;;6.07;4.18;;;;;;;11.40;79.39;100613.38;5065952;28;20484;-71
2023/05/01 03:56:38;;;;;;;4.40;3.78;;;;;;;11.45;79.35;100616.38;5069615;28;20033;-71
2023/05/01 03:59:04;;;;;;;4.72;3.00;;;;;;;11.42;79.29;100595.78;5064932;28;20125;-70
2023/05/01 04:01:32;;;;;;;3.05;2.75;;;;;;;11.36;79.87;100605.00;5073293;28;20055;-71
2023/05/01 04:03:57;;;;;;;3.58;2.35;;;;;;;11.36;79.64;100594.56;5074885;28;20471;-71
2023/05/01 04:06:24;;;;;;;5.53;3.08;;;;;;;11.29;78.84;100601.38;5066262;28;20032;-72
2023/05/01 04:08:49;;;;;;;3.65;2.90;;;;;;;11.33;78.58;100592.28;5066428;28;20031;-71
2023/05/01 04:11:15;;;;;;;4.38;2.70;;;;;;;11.34;79.21;100585.28;5069887;28;20029;-72
2023/05/01 04:13:40;;;;;;;1.83;1.52;;;;;;;11.76;74.63;100582.94;5073125;28;20036;-72
2023/05/01 04:16:06;;;;;;;3.53;1.73;;;;;;;12.16;71.55;100582.47;5071599;28;20064;-72
2023/05/01 04:18:31;;;;;;;3.15;1.35;;;;;;;12.30;71.49;100571.44;5077438;28;20472;-72
2023/05/01 04:20:57;;;;;;;8.50;2.30;;;;;;;12.23;71.81;100566.03;5084795;28;20043;-71
2023/05/01 04:23:22;;;;;;;2.25;2.03;;;;;;;12.23;71.54;100567.84;5069635;28;20029;-72
2023/05/01 04:25:48;;;;;;;2.33;1.85;;;;;;;12.28;70.85;100581.25;5076126;28;20150;-72
2023/05/01 04:28:13;;;;;;;3.88;2.63;;;;;;;12.43;70.75;100582.31;5079618;28;20119;-72
2023/05/01 04:30:39;;;;;;;3.13;2.00;;;;;;;12.44;71.77;100570.91;5077440;28;20471;-72
2023/05/01 04:33:10;;;;;;;3.60;2.05;;;;;;;12.35;72.44;100581.44;5073202;28;20060;-73
2023/05/01 04:35:38;;;;;;;5.70;2.10;;;;;;;12.28;72.36;100582.09;5073621;28;20136;-73
2023/05/01 04:38:04;;;;;;;4.47;2.35;;;;;;;12.25;73.48;100579.78;5072292;28;20043;-73
2023/05/01 04:40:30;;;;;;;2.95;1.60;;;;;;;12.25;72.29;100577.16;5075371;28;20392;-73
2023/05/01 04:42:55;;;;;;;4.53;1.88;;;;;;;12.30;73.04;100574.88;5071167;28;20028;-72
2023/05/01 04:45:21;;;;;;;2.58;1.52;;;;;;;12.30;74.19;100582.72;5065027;28;20048;-71
2023/05/01 04:47:46;;;;;;;3.58;1.25;;;;;;;12.21;73.00;100583.66;5072153;28;20074;-73
2023/05/01 04:50:11;;;;;;;2.30;1.40;;;;;;;12.32;73.00;100595.63;5077590;28;20035;-72
2023/05/01 04:52:37;;;;;;;3.53;1.38;;;;;;;12.39;72.94;100593.25;5073661;28;20029;-72
2023/05/01 04:55:03;;;;;;;2.58;1.40;;;;;;;12.36;74.47;100590.94;5072196;28;20035;-73
2023/05/01 04:57:28;;;;;;;2.05;1.10;;;;;;;12.29;73.99;100594.16;5069261;28;20040;-73
2023/05/01 04:59:54;;;;;;;1.77;1.20;;;;;;;12.37;74.28;100595.19;5067492;28;20036;-72
2023/05/01 05:02:19;;;;;;;3.20;1.65;;;;;;;12.38;74.89;100591.59;5060411;28;20472;-72
2023/05/01 05:04:45;;;;;;;1.85;0.90;;;;;;;12.58;71.77;100587.81;5067230;28;20037;-72
2023/05/01 05:07:11;;;;;;;3.13;0.93;;;;;;;12.98;68.13;100581.97;5064371;28;20028;-73
2023/05/01 05:09:37;;;;;;;3.35;1.30;;;;;;;13.13;67.65;100590.88;5061718;28;20033;-73
2023/05/01 05:12:03;;;;;;;3.53;0.60;;;;;;;13.25;65.83;100592.22;5054113;28;20540;-72
2023/05/01 05:14:29;;;;;;;1.77;0.60;;;;;;;13.53;63.68;100592.00;5062253;28;20124;-73
2023/05/01 05:16:55;;;;;;;2.78;0.70;;;;;;;13.73;63.42;100595.94;5052167;28;20040;-73
2023/05/01 05:19:20;;;;;;;2.53;0.60;;;;;;;13.76;63.46;100600.03;5075841;28;20028;-73
2023/05/01 05:21:46;;;;;;;1.27;0.60;;;;;;;13.66;66.31;100596.75;5068345;28;20027;-72
2023/05/01 05:24:12;;;;;;;2.42;0.98;;;;;;;13.46;68.58;100604.06;5074010;28;20514;-72
2023/05/01 05:26:38;;;;;;;2.15;0.98;;;;;;;13.31;70.14;100603.03;5067567;28;20028;-72
2023/05/01 05:29:03;;;;;;;2.83;0.95;;;;;;;13.24;70.46;100605.47;5070102;28;20063;-73
2023/05/01 05:31:29;;;;;;;1.38;1.10;;;;;;;13.23;70.63;100614.31;5061166;28;20071;-72
2023/05/01 05:33:54;;;;;;;2.38;0.93;;;;;;;13.33;71.00;100606.31;5068325;28;20377;-72
2023/05/01 05:36:20;;;;;;;1.73;1.17;;;;;;;13.56;70.90;100602.13;5062573;28;20090;-72
2023/05/01 05:38:45;;;;;;;4.70;1.38;;;;;;;13.75;68.91;100601.81;5060985;28;20036;-73
2023/05/01 05:41:11;;;;;;;2.45;0.90;;;;;;;13.84;69.21;100610.50;5059252;28;20038;-73
2023/05/01 05:43:36;;;;;;;2.20;1.02;;;;;;;13.94;68.30;100613.81;5073621;28;20032;-73
2023/05/01 05:46:02;;;;;;;2.25;1.65;;;;;;;14.06;66.77;100612.50;5060359;28;20139;-73
2023/05/01 05:48:28;;;;;;;5.43;2.72;;;;;;;14.27;65.97;100610.19;5070419;28;20114;-73
2023/05/01 05:50:54;;;;;;;4.30;2.55;;;;;;;14.34;65.47;100601.69;5070649;28;20410;-72
2023/05/01 05:53:20;;;;;;;6.88;2.58;;;;;;;14.39;66.06;100610.69;5072088;28;20036;-73
2023/05/01 05:55:47;;;;;;;2.10;1.30;;;;;;;14.45;65.01;100609.22;5074646;28;20097;-73
2023/05/01 05:58:18;;;;;;;3.60;1.88;;;;;;;14.62;64.08;100610.84;5070839;28;20499;-73
2023/05/01 06:00:47;;;;;;;1.90;0.93;;;;;;;14.75;62.52;100613.75;5068063;28;20020;-73
2023/05/01 06:03:13;;;;;;;2.22;1.50;;;;;;;15.01;62.59;100603.03;5061570;28;20025;-73
2023/05/01 06:05:38;;;;;;;2.78;1.10;;;;;;;15.14;62.58;100605.91;5068565;28;20362;-73
2023/05/01 06:08:04;;;;;;;2.10;0.70;;;;;;;15.26;60.81;100608.97;5081183;28;20471;-73
2023/05/01 06:10:29;;;;;;;2.10;0.90;;;;;;;15.51;60.27;100609.69;5084717;28;20479;-73
2023/05/01 06:12:55;;;;;;;3.05;0.70;;;;;;;15.99;59.50;100610.38;5067964;28;20074;-73
2023/05/01 06:15:20;;;;;;;2.08;0.70;;;;;;;16.58;58.15;100612.13;5079117;28;20031;-73
2023/05/01 06:17:46;;;;;;;1.42;0.50;;;;;;;16.74;57.47;100611.16;5085146;28;20070;-73
2023/05/01 06:20:13;;;;;;;2.00;0.85;;;;;;;16.68;57.38;100618.97;5083342;28;20034;-72
2023/05/01 06:22:38;;;;;;;1.55;0.90;;;;;;;16.60;58.42;100615.38;5075488;28;20036;-72
2023/05/01 06:25:05;;;;;;;4.35;0.60;;;;;;;16.63;59.03;100613.38;5075432;28;20024;-73
2023/05/01 06:27:30;;;;;;;1.42;0.50;;;;;;;16.64;59.17;100618.50;5078785;28;20135;-72
2023/05/01 06:29:56;;;;;;;4.15;0.80;;;;;;;16.68;59.36;100619.78;5070880;28;20209;-72
2023/05/01 06:32:22;;;;;;;2.95;0.60;;;;;;;16.73;58.74;100619.25;5073602;28;20118;-70
2023/05/01 06:34:47;;;;;;;1.20;0.73;;;;;;;16.89;58.01;100630.41;5059980;28;20071;-70
2023/05/01 06:37:13;;;;;;;3.10;0.50;;;;;;;16.91;57.06;100632.88;5063265;28;20052;-71
2023/05/01 06:39:38;;;;;;;4.13;0.70;;;;;;;16.98;57.02;100627.69;5076329;28;20036;-69
2023/05/01 06:42:03;;;;;;;5.20;0.93;;;;;;;17.05;57.19;100632.03;5080078;28;20032;-69
2023/05/01 06:44:29;;;;;;;4.00;0.68;;;;;;;16.84;57.04;100639.84;5073203;28;20046;-70
2023/05/01 06:46:55;;;;;;;1.05;0.63;;;;;;;16.81;57.75;100641.03;5066645;28;20029;-70
2023/05/01 06:49:22;;;;;;;2.53;0.98;;;;;;;16.90;57.54;100652.28;5063455;28;20044;-71
2023/05/01 06:51:47;;;;;;;1.17;0.60;;;;;;;16.99;57.20;100650.38;5070444;28;20028;-73
2023/05/01 06:54:12;;;;;;;5.05;0.90;;;;;;;16.74;55.78;100650.63;5055096;28;20361;-73
2023/05/01 06:56:38;;;;;;;1.83;0.65;;;;;;;16.63;54.57;100651.03;5060015;28;20025;-73
2023/05/01 06:59:04;;;;;;;1.85;0.73;;;;;;;16.57;54.71;100651.75;5060093;28;20120;-73
2023/05/01 07:01:30;;;;;;;2.75;0.60;;;;;;;16.88;53.81;100649.84;5066812;28;20078;-70
2023/05/01 07:03:55;;;;;;;1.10;0.52;;;;;;;17.06;54.25;100649.44;5059684;28;20178;-70
2023/05/01 07:06:21;;;;;;;2.75;0.63;;;;;;;16.91;53.64;100646.03;5066403;28;20020;-72
2023/05/01 07:08:46;;;;;;;1.80;0.85;;;;;;;16.97;53.03;100641.84;5040200;28;20396;-70
2023/05/01 07:11:12;;;;;;;3.55;0.40;;;;;;;16.95;52.13;100638.59;5063586;28;20120;-71
2023/05/01 07:13:37;;;;;;;3.30;0.60;;;;;;;16.90;52.01;100639.94;5071784;28;20036;-70
2023/05/01 07:16:03;;;;;;;1.20;0.40;;;;;;;16.90;52.18;100639.94;5061752;28;20052;-70
2023/05/01 07:18:28;;;;;;;2.65;0.80;;;;;;;16.96;52.33;100634.97;5071611;28;20039;-70
2023/05/01 07:20:54;;;;;;;1.17;0.60;;;;;;;17.05;52.40;100636.47;5077999;28;20039;-70
2023/05/01 07:23:21;;;;;;;5.32;0.55;;;;;;;17.15;51.89;100639.66;5075116;28;20038;-73
2023/05/01 07:25:47;;;;;;;4.47;0.47;;;;;;;17.32;52.10;100635.81;5066755;28;20029;-73
2023/05/01 07:28:12;;;;;;;1.58;0.60;;;;;;;17.54;52.94;100634.03;5073064;28;20023;-72
2023/05/01 07:30:38;;;;;;;1.33;0.50;;;;;;;17.61;52.05;100631.47;5074242;28;20052;-73
2023/05/01 07:33:04;;;;;;;1.88;0.40;;;;;;;17.73;50.04;100635.28;5073261;28;20032;-74
2023/05/01 07:35:31;;;;;;;2.08;0.60;;;;;;;17.84;49.78;100629.53;5072191;28;20041;-73
2023/05/01 07:37:56;;;;;;;1.02;0.50;;;;;;;17.88;49.29;100630.78;5072516;28;20107;-75
2023/05/01 07:40:22;;;;;;;2.13;0.40;;;;;;;17.82;48.54;100626.28;5074103;28;20119;-72
2023/05/01 07:42:47;;;;;;;2.40;0.40;;;;;;;18.11;49.51;100631.41;5065374;28;20082;-72
2023/05/01 07:45:13;;;;;;;2.00;0.30;;;;;;;18.45;49.42;100627.19;5072462;28;20126;-73
2023/05/01 07:47:38;;;;;;;2.88;0.40;;;;;;;18.60;49.19;100627.94;5065771;28;20032;-72
2023/05/01 07:50:08;;;;;;;1.83;0.60;;;;;;;18.65;47.84;100625.56;5063417;28;20429;-74
2023/05/01 07:52:33;;;;;;;2.83;0.30;;;;;;;18.70;47.45;100619.69;5072976;28;20036;-72
2023/05/01 07:54:59;;;;;;;0.95;0.40;;;;;;;18.84;47.38;100624.06;5074469;28;20028;-73
2023/05/01 07:57:24;;;;;;;1.45;0.30;;;;;;;18.80;46.18;100623.63;5066270;28;20033;-74
2023/05/01 07:59:55;;;;;;;1.33;0.30;;;;;;;18.92;45.45;100620.41;5068968;28;20056;-75
2023/05/01 08:02:21;;;;;;;0.95;0.30;;;;;;;18.84;46.12;100619.59;5073376;28;20472;-76
2023/05/01 08:04:47;;;;;;;2.53;0.40;;;;;;;18.84;45.91;100619.59;5066544;28;20036;-75
2023/05/01 08:07:15;;;;;;;3.58;0.30;;;;;;;19.06;46.20;100624.75;5058920;28;20582;-74
2023/05/01 08:09:43;;;;;;;1.10;0.30;;;;;;;19.46;46.23;100623.91;5069550;28;20094;-74
2023/05/01 08:12:09;;;;;;;2.10;0.30;;;;;;;19.86;45.97;100624.03;5058703;28;20029;-74
2023/05/01 08:14:35;;;;;;;0.90;0.30;;;;;;;19.83;45.52;100622.63;5057150;28;20481;-76
2023/05/01 08:17:02;;;;;;;1.00;0.30;;;;;;;19.76;44.64;100623.63;5057923;28;20544;-77
2023/05/01 08:19:28;;;;;;;0.50;0.28;;;;;;;19.39;44.03;100615.13;5047547;28;20032;-75
2023/05/01 08:21:54;;;;;;;0.68;0.20;;;;;;;19.36;43.44;100620.03;5056860;28;20503;-74
2023/05/01 08:24:20;;;;;;;0.98;0.30;;;;;;;19.38;43.84;100620.63;5063171;28;20032;-72
2023/05/01 08:26:46;;;;;;;1.05;0.45;;;;;;;19.47;43.95;100630.81;5070124;28;20039;-72
2023/05/01 08:29:11;;;;;;;0.43;0.30;;;;;;;19.47;43.68;100625.53;5057149;28;20037;-76
2023/05/01 08:31:38;;;;;;;0.63;0.30;;;;;;;19.76;44.34;100629.72;5056691;28;20121;-75
2023/05/01 08:34:04;;;;;;;0.75;0.32;;;;;;;19.68;43.26;100626.44;5068699;28;20036;-76
2023/05/01 08:36:31;;;;;;;0.73;0.30;;;;;;;19.63;43.48;100624.41;5067794;28;20052;-75
2023/05/01 08:38:57;;;;;;;3.00;0.40;;;;;;;19.48;43.05;100613.94;5067111;28;20093;-74
2023/05/01 08:41:22;;;;;;;0.82;0.40;;;;;;;19.37;43.67;100619.03;5070313;28;20047;-74
2023/05/01 08:43:48;;;;;;;0.95;0.30;;;;;;;19.31;44.08;100615.34;5069651;28;20035;-75
2023/05/01 08:46:43;;;;;;;0.70;0.30;;;;;;;19.16;41.09;100614.66;5068575;28;20035;-76
2023/05/01 08:49:11;;;;;;;0.73;0.30;;;;;;;19.12;43.40;100616.06;5064393;28;20041;-74
2023/05/01 08:51:37;;;;;;;1.08;0.30;;;;;;;19.01;43.46;100621.88;5073121;28;20031;-75
2023/05/01 08:54:05;;;;;;;0.40;0.30;;;;;;;18.87;43.12;100623.66;5070304;28;20033;-79
2023/05/01 08:56:33;;;;;;;1.60;0.30;;;;;;;18.87;43.89;100611.28;5053264;28;20045;-74
2023/05/01 08:59:02;;;;;;;0.55;0.30;;;;;;;18.82;44.12;100612.88;5077208;28;20033;-75
2023/05/01 09:01:29;;;;;;;0.75;0.28;;;;;;;18.87;43.03;100610.47;5069497;28;20503;-72
2023/05/01 09:03:56;;;;;;;1.88;0.30;;;;;;;19.04;44.74;100613.59;5067738;28;20447;-75
2023/05/01 09:06:22;;;;;;;2.17;0.30;;;;;;;19.25;45.33;100613.47;5068875;28;20060;-76
2023/05/01 09:08:47;;;;;;;0.70;0.30;;;;;;;19.44;45.28;100611.91;5074174;28;20031;-73
2023/05/01 09:11:12;;;;;;;0.85;0.43;;;;;;;19.39;46.06;100614.31;5070185;28;20043;-74
2023/05/01 09:13:38;;;;;;;5.80;0.35;;;;;;;19.23;45.36;100613.69;5070459;28;20360;-77
2023/05/01 09:16:05;;;;;;;2.80;0.40;;;;;;;19.09;44.59;100613.81;5076604;28;20551;-78
2023/05/01 09:18:32;;;;;;;0.98;0.40;;;;;;;18.98;44.22;100611.72;5076036;28;20131;-76
2023/05/01 09:20:58;;;;;;;2.47;0.50;;;;;;;19.02;44.70;100612.97;5083154;28;20036;-74
2023/05/01 09:23:23;;;;;;;2.30;0.40;;;;;;;19.14;44.58;100608.75;5075377;28;20039;-76
2023/05/01 09:25:49;;;;;;;0.75;0.30;;;;;;;19.40;45.60;100608.03;5084190;28;20388;-74
2023/05/01 09:28:15;;;;;;;0.80;0.30;;;;;;;19.49;45.98;100607.66;5076969;28;20036;-74
2023/05/01 09:30:41;;;;;;;0.95;0.38;;;;;;;19.54;46.69;100605.25;5070176;28;20479;-75
2023/05/01 09:33:11;;;;;;;2.08;0.50;;;;;;;19.54;46.29;100601.81;5086443;28;20040;-74
2023/05/01 09:35:54;;;;;;;3.35;0.40;;;;;;;19.50;43.58;100611.91;5064165;28;20066;-74
2023/05/01 09:38:22;;;;;;;1.02;0.30;;;;;;;19.53;46.42;100610.75;5083717;28;20035;-75
2023/05/01 09:40:48;;;;;;;1.17;0.30;;;;;;;19.73;46.60;100605.50;5088207;28;20136;-75
2023/05/01 09:43:24;;;;;;;1.77;0.30;;;;;;;19.68;46.39;100607.94;5078606;28;20110;-74
2023/05/01 09:46:08;;;;;;;1.15;0.40;;;;;;;19.64;46.70;100609.34;5076337;28;20131;-75
2023/05/01 09:48:34;;;;;;;1.83;0.40;;;;;;;19.67;46.50;100603.66;5078906;28;20036;-73
2023/05/01 09:51:00;;;;;;;1.58;0.40;;;;;;;19.65;46.59;100603.06;5088268;28;20036;-74
2023/05/01 09:53:39;;;;;;;1.77;0.30;;;;;;;19.64;46.14;100598.78;5069042;28;20077;-73
2023/05/01 09:56:05;;;;;;;0.82;0.40;;;;;;;19.62;46.39;100603.44;5078684;28;20032;-75
2023/05/01 09:58:31;;;;;;;0.85;0.30;;;;;;;19.46;45.77;100602.75;5077601;28;20055;-75
2023/05/01 10:00:56;;;;;;;1.27;0.30;;;;;;;19.34;45.86;100600.91;5082730;28;20491;-75
2023/05/01 10:03:21;;;;;;;0.80;0.40;;;;;;;19.18;45.77;100599.44;5074895;28;20115;-73
2023/05/01 10:05:47;;;;;;;1.33;0.40;;;;;;;19.13;45.85;100605.31;5081983;28;20111;-76
2023/05/01 10:08:13;;;;;;;0.60;0.30;;;;;;;19.28;46.35;100597.25;5082135;28;20059;-73
2023/05/01 10:10:42;;;;;;;2.22;0.45;;;;;;;19.32;45.82;100602.94;5079842;28;20065;-74
2023/05/01 10:13:16;;;;;;;1.17;0.38;;;;;;;19.32;45.98;100601.13;5082679;28;20035;-75
2023/05/01 10:15:44;;;;;;;1.13;0.40;;;;;;;19.46;46.10;100605.41;5068539;28;20028;-74
2023/05/01 10:18:10;;;;;;;2.28;0.52;;;;;;;19.43;46.35;100595.22;5079299;28;20039;-73
2023/05/01 10:20:36;;;;;;;1.45;0.50;;;;;;;19.55;46.29;100600.78;5079002;28;20045;-73
2023/05/01 10:23:04;;;;;;;1.70;0.40;;;;;;;19.65;45.81;100592.47;5080024;28;20032;-72
2023/05/01 10:25:31;;;;;;;4.38;0.50;;;;;;;19.81;45.37;100597.41;5074439;28;20047;-72
2023/05/01 10:27:56;;;;;;;0.57;0.30;;;;;;;19.80;44.91;100598.41;5075537;28;20035;-74
2023/05/01 10:30:22;;;;;;;1.98;0.40;;;;;;;19.83;44.88;100593.53;5074325;28;20032;-75
2023/05/01 10:32:48;;;;;;;1.20;0.38;;;;;;;19.87;46.29;100592.09;5073059;28;20064;-74
2023/05/01 10:35:43;;;;;;;1.27;0.50;;;;;;;19.91;45.26;100587.22;5077935;28;20084;-72
2023/05/01 10:38:16;;;;;;;1.40;0.50;;;;;;;19.89;45.88;100595.34;5070599;28;20487;-75
2023/05/01 10:40:42;;;;;;;0.70;0.30;;;;;;;19.69;46.10;100596.34;5057550;28;20388;-73
2023/05/01 10:43:28;;;;;;;0.75;0.30;;;;;;;19.63;45.05;100594.50;5072402;28;20028;-72
2023/05/01 10:46:07;;;;;;;2.17;0.30;;;;;;;19.54;44.93;100589.41;5058935;28;20131;-73
2023/05/01 10:48:39;;;;;;;2.78;0.35;;;;;;;19.58;45.25;100592.47;5060918;28;20381;-73
2023/05/01 10:51:11;;;;;;;0.80;0.30;;;;;;;19.54;46.61;100583.31;5066662;28;20067;-73
2023/05/01 10:53:42;;;;;;;1.38;0.52;;;;;;;19.61;46.87;100586.78;5064813;28;20040;-72
2023/05/01 10:56:22;;;;;;;1.35;0.30;;;;;;;19.80;47.71;100579.91;5058213;28;20032;-73
2023/05/01 10:58:58;;;;;;;0.70;0.40;;;;;;;19.81;45.94;100570.97;5063317;28;20538;-73
2023/05/01 11:01:33;;;;;;;2.75;0.40;;;;;;;19.88;45.78;100571.75;5075228;28;20027;-72
2023/05/01 11:04:07;;;;;;;1.63;0.65;;;;;;;20.03;45.99;100572.38;5068228;28;20445;-76
2023/05/01 11:06:34;;;;;;;2.42;0.40;;;;;;;20.06;45.35;100571.97;5066513;28;20029;-77
2023/05/01 11:09:01;;;;;;;1.63;0.30;;;;;;;20.18;45.59;100573.00;5057492;28;20040;-78
2023/05/01 11:11:26;;;;;;;1.05;0.40;;;;;;;20.25;45.86;100570.34;5057808;28;20504;-77
2023/05/01 11:14:04;;;;;;;3.20;0.43;;;;;;;20.34;45.31;100569.09;5062051;28;20056;-74
2023/05/01 11:16:38;;;;;;;1.05;0.40;;;;;;;20.45;45.23;100567.69;5060186;28;20043;-72
2023/05/01 11:19:19;;;;;;;1.38;0.30;;;;;;;20.60;46.94;100560.31;5039910;28;20401;-72
2023/05/01 11:21:45;;;;;;;1.08;0.20;;;;;;;20.49;45.66;100561.78;5066605;28;20044;-72
2023/05/01 11:24:11;;;;;;;1.98;0.30;;;;;;;20.36;46.42;100563.59;5057977;28;20037;-72
2023/05/01 11:26:41;;;;;;;1.25;0.32;;;;;;;20.43;47.41;100559.13;5045203;28;20036;-74